Time;durP1;ratioP1;P1;durP2;ratioP2;P2;SDS_P1;SDS_P2;PMS_P1;PMS_P2;Temp;Humidity;BMP_temperature;BMP_pressure;BME280_temperature;BME280_humidity;BME280_pressure;Samples;Min_cycle;Max_cycle;Signal;HPM_P1;HPM_P2
2023/06/04 00:00:46;;;;;;;4.80;3.60;;;;;;;17.47;98.34;95307.97;4994416;28;20231;-72
2023/06/04 00:03:12;;;;;;;4.47;3.30;;;;;;;17.24;100.00;95307.19;4994130;28;20223;-71
2023/06/04 00:05:37;;;;;;;4.67;3.63;;;;;;;17.28;100.00;95314.41;4997052;28;20235;-71
2023/06/04 00:08:03;;;;;;;6.40;3.67;;;;;;;17.35;100.00;95315.09;4991504;28;21552;-70
2023/06/04 00:10:28;;;;;;;5.37;3.50;;;;;;;17.32;100.00;95307.63;4996532;28;20253;-71
2023/06/04 00:12:53;;;;;;;7.90;3.80;;;;;;;17.32;99.66;95317.41;5010973;28;20230;-72
2023/06/04 00:15:19;;;;;;;6.73;3.67;;;;;;;17.37;98.88;95312.22;5000470;28;20223;-70
2023/06/04 00:17:45;;;;;;;7.70;3.63;;;;;;;17.39;99.47;95313.59;4990430;28;20301;-72
2023/06/04 00:20:10;;;;;;;4.40;3.60;;;;;;;17.36;98.78;95314.06;4986423;28;20979;-71
2023/06/04 00:22:36;;;;;;;5.37;3.50;;;;;;;17.40;98.74;95309.94;5008802;28;20232;-70
2023/06/04 00:25:02;;;;;;;4.43;3.20;;;;;;;17.45;98.36;95304.75;4985547;28;20314;-70
2023/06/04 00:27:27;;;;;;;6.20;3.33;;;;;;;17.54;97.25;95304.41;4993926;28;20693;-72
2023/06/04 00:29:52;;;;;;;4.43;3.40;;;;;;;17.63;96.90;95303.81;4986911;28;20243;-71
2023/06/04 00:32:18;;;;;;;4.83;3.30;;;;;;;17.48;98.44;95301.63;4990856;28;20240;-71
2023/06/04 00:34:50;;;;;;;5.57;3.40;;;;;;;17.45;98.49;95302.09;4995601;28;20226;-71
2023/06/04 00:37:16;;;;;;;5.07;3.33;;;;;;;17.44;98.85;95295.19;4985705;28;20239;-71
2023/06/04 00:39:41;;;;;;;6.40;3.30;;;;;;;17.47;98.58;95296.56;4984456;28;20293;-72
2023/06/04 00:42:07;;;;;;;4.33;3.40;;;;;;;17.40;99.27;95304.63;4999514;28;20276;-71
2023/06/04 00:44:33;;;;;;;7.80;3.77;;;;;;;17.43;99.27;95293.56;4989285;28;20645;-72
2023/06/04 00:46:59;;;;;;;6.20;3.70;;;;;;;17.33;99.71;95296.00;4967088;28;20341;-72
2023/06/04 00:49:24;;;;;;;5.27;3.70;;;;;;;17.41;99.38;95295.63;4990872;28;20678;-71
2023/06/04 00:51:50;;;;;;;4.60;3.53;;;;;;;17.42;98.85;95288.50;4993905;28;20230;-71
2023/06/04 00:54:17;;;;;;;5.50;3.50;;;;;;;17.35;99.76;95299.22;5010457;28;20775;-71
2023/06/04 00:56:44;;;;;;;5.77;3.30;;;;;;;17.33;99.63;95303.94;4991606;28;20282;-70
2023/06/04 00:59:09;;;;;;;4.90;3.40;;;;;;;17.22;100.00;95294.16;4990867;28;20302;-71
2023/06/04 01:02:03;;;;;;;4.97;3.00;;;;;;;17.31;99.63;95299.94;4992446;28;20231;-72
2023/06/04 01:05:04;;;;;;;5.77;3.47;;;;;;;17.17;100.00;95296.69;5000649;28;20235;-71
2023/06/04 01:07:30;;;;;;;4.97;3.17;;;;;;;17.28;99.75;95301.19;5010973;28;20711;-71
2023/06/04 01:09:55;;;;;;;5.90;3.20;;;;;;;17.22;100.00;95296.81;4997558;28;20243;-70
2023/06/04 01:12:21;;;;;;;4.47;3.20;;;;;;;17.23;100.00;95306.38;4994886;28;20244;-72
2023/06/04 01:14:46;;;;;;;5.40;2.90;;;;;;;17.24;99.84;95297.38;4966657;28;20231;-72
2023/06/04 01:17:28;;;;;;;3.80;3.10;;;;;;;17.31;99.36;95299.94;4992715;28;20464;-70
2023/06/04 01:20:12;;;;;;;4.47;2.90;;;;;;;17.37;98.32;95291.84;4998814;28;20269;-72
2023/06/04 01:22:47;;;;;;;4.17;2.87;;;;;;;17.36;98.78;95297.41;4994046;28;20231;-71
2023/06/04 01:25:19;;;;;;;4.07;3.10;;;;;;;17.41;97.51;95292.22;4993421;28;20841;-71
2023/06/04 01:27:49;;;;;;;4.87;3.20;;;;;;;17.27;98.18;95296.94;4988522;28;20238;-72
2023/06/04 01:30:15;;;;;;;3.77;2.70;;;;;;;17.30;97.76;95298.31;4979180;28;20227;-72
2023/06/04 01:32:41;;;;;;;4.20;3.03;;;;;;;17.17;98.22;95294.03;4997336;28;20261;-71
2023/06/04 01:35:11;;;;;;;4.17;2.83;;;;;;;17.32;98.03;95302.34;4987134;28;20235;-71
2023/06/04 01:37:36;;;;;;;3.73;2.97;;;;;;;17.31;98.28;95316.63;4992013;28;20701;-71
2023/06/04 01:40:02;;;;;;;4.43;3.30;;;;;;;17.30;98.56;95316.81;4990566;28;20237;-71
2023/06/04 01:42:27;;;;;;;5.07;3.10;;;;;;;17.33;98.42;95314.53;5009202;28;20235;-72
2023/06/04 01:44:53;;;;;;;6.23;3.30;;;;;;;17.30;98.66;95309.69;4994356;28;20235;-71
2023/06/04 01:47:18;;;;;;;4.00;2.93;;;;;;;17.38;98.60;95313.84;4991631;28;20242;-70
2023/06/04 01:49:44;;;;;;;4.63;3.00;;;;;;;17.21;99.19;95310.28;4991856;28;20240;-72
2023/06/04 01:52:10;;;;;;;4.40;3.40;;;;;;;17.22;99.70;95315.31;4979578;28;20231;-71
2023/06/04 01:54:37;;;;;;;4.60;3.20;;;;;;;17.38;98.49;95316.47;4992210;28;20232;-71
2023/06/04 01:57:03;;;;;;;4.87;3.00;;;;;;;17.34;98.35;95321.41;4990709;28;20304;-72
2023/06/04 01:59:29;;;;;;;5.43;2.93;;;;;;;17.31;98.49;95321.09;4984694;28;20679;-72
2023/06/04 02:01:54;;;;;;;3.57;2.97;;;;;;;17.40;98.26;95325.81;4985893;28;20227;-71
2023/06/04 02:04:21;;;;;;;3.93;2.90;;;;;;;17.28;98.60;95325.00;4979780;28;21016;-71
2023/06/04 02:06:48;;;;;;;5.70;3.20;;;;;;;17.24;99.36;95323.84;4982053;28;20941;-71
2023/06/04 02:09:14;;;;;;;3.70;2.80;;;;;;;17.34;98.87;95324.06;4991255;28;20231;-71
2023/06/04 02:11:39;;;;;;;4.87;2.90;;;;;;;17.23;98.77;95322.25;5008457;28;20246;-73
2023/06/04 02:14:04;;;;;;;3.50;2.80;;;;;;;17.16;99.68;95329.50;4978572;28;20234;-71
2023/06/04 02:16:30;;;;;;;7.03;3.10;;;;;;;17.21;99.84;95326.16;5002945;28;20233;-72
2023/06/04 02:18:55;;;;;;;3.07;2.77;;;;;;;17.19;99.78;95322.94;4995096;28;20232;-72
2023/06/04 02:21:21;;;;;;;4.87;3.00;;;;;;;17.25;99.87;95328.09;4992718;28;20234;-72
2023/06/04 02:23:46;;;;;;;6.37;3.10;;;;;;;17.25;99.90;95327.28;4990916;28;20241;-72
2023/06/04 02:26:12;;;;;;;3.90;2.90;;;;;;;17.19;100.00;95328.22;4996288;28;20227;-71
2023/06/04 02:28:37;;;;;;;4.67;2.87;;;;;;;17.18;100.00;95331.91;4992322;28;20262;-72
2023/06/04 02:31:03;;;;;;;3.40;2.80;;;;;;;17.20;100.00;95337.75;4978686;28;20845;-71
2023/06/04 02:33:29;;;;;;;3.97;3.10;;;;;;;17.11;100.00;95337.31;4992405;28;20286;-71
2023/06/04 02:35:55;;;;;;;3.20;2.90;;;;;;;17.16;100.00;95341.91;4993133;28;20234;-71
2023/06/04 02:38:21;;;;;;;4.33;3.10;;;;;;;17.13;100.00;95345.00;4985510;28;20698;-70
2023/06/04 02:40:46;;;;;;;6.03;3.07;;;;;;;17.13;100.00;95345.00;4993267;28;20257;-71
2023/06/04 02:43:11;;;;;;;4.17;2.90;;;;;;;17.21;100.00;95348.13;4968822;28;20226;-71
2023/06/04 02:45:37;;;;;;;4.17;3.27;;;;;;;17.20;100.00;95350.97;4993801;28;20627;-72
2023/06/04 02:48:02;;;;;;;4.53;3.03;;;;;;;17.13;100.00;95358.22;4994541;28;20237;-72
2023/06/04 02:50:28;;;;;;;4.90;3.00;;;;;;;17.05;100.00;95351.44;4991864;28;20639;-71
2023/06/04 02:52:53;;;;;;;5.30;3.20;;;;;;;17.17;100.00;95359.41;5007717;28;20230;-72
2023/06/04 02:55:19;;;;;;;5.00;3.37;;;;;;;17.05;100.00;95364.66;4991484;28;20296;-72
2023/06/04 02:57:44;;;;;;;5.30;3.20;;;;;;;17.02;100.00;95365.13;4985458;28;20805;-72
2023/06/04 03:00:14;;;;;;;5.13;3.37;;;;;;;16.98;100.00;95365.81;4974898;28;20235;-72
2023/06/04 03:02:49;;;;;;;3.70;3.00;;;;;;;17.08;100.00;95366.03;4995258;28;20231;-73
2023/06/04 03:05:15;;;;;;;4.33;3.30;;;;;;;17.20;100.00;95364.22;5002931;28;20286;-72
2023/06/04 03:07:42;;;;;;;4.30;3.20;;;;;;;17.00;100.00;95375.13;4984049;28;20235;-72
2023/06/04 03:10:08;;;;;;;4.47;3.20;;;;;;;16.93;100.00;95368.34;4994017;28;20681;-72
2023/06/04 03:12:34;;;;;;;3.83;3.10;;;;;;;16.96;100.00;95366.03;4997095;28;20285;-71
2023/06/04 03:14:59;;;;;;;5.57;3.13;;;;;;;16.99;100.00;95364.78;4978194;28;20238;-72
2023/06/04 03:17:25;;;;;;;7.00;3.03;;;;;;;17.04;100.00;95371.00;4976203;28;20236;-72
2023/06/04 03:19:51;;;;;;;5.57;3.03;;;;;;;17.11;100.00;95374.34;4984257;28;20370;-70
2023/06/04 03:22:16;;;;;;;5.07;3.10;;;;;;;17.08;100.00;95361.56;4992108;28;20348;-71
2023/06/04 03:24:42;;;;;;;5.20;3.07;;;;;;;17.02;100.00;95375.72;4990881;28;20317;-71
2023/06/04 03:27:08;;;;;;;3.60;2.90;;;;;;;16.93;100.00;95377.09;4991545;28;20708;-71
2023/06/04 03:29:34;;;;;;;4.33;2.97;;;;;;;16.96;100.00;95378.44;4977091;28;20310;-71
2023/06/04 03:32:00;;;;;;;5.07;3.37;;;;;;;16.92;100.00;95382.59;4974994;28;20334;-71
2023/06/04 03:34:25;;;;;;;4.13;3.10;;;;;;;16.88;100.00;95384.88;4979054;28;20728;-71
2023/06/04 03:36:54;;;;;;;3.37;3.00;;;;;;;16.70;100.00;95383.09;4994332;28;20237;-71
2023/06/04 03:39:20;;;;;;;4.27;3.10;;;;;;;16.84;100.00;95387.16;4994673;28;20671;-72
2023/06/04 03:41:45;;;;;;;6.03;3.10;;;;;;;17.04;100.00;95383.41;4991824;28;20275;-72
2023/06/04 03:44:17;;;;;;;4.70;3.17;;;;;;;17.10;100.00;95390.44;4994401;28;20346;-70
2023/06/04 03:46:43;;;;;;;4.13;3.20;;;;;;;17.14;100.00;95391.59;4987600;28;20335;-72
2023/06/04 03:49:10;;;;;;;4.90;2.97;;;;;;;17.14;100.00;95389.75;4984884;28;20321;-72
2023/06/04 03:51:36;;;;;;;5.70;3.33;;;;;;;17.09;100.00;95397.56;4989545;28;20266;-71
2023/06/04 03:54:02;;;;;;;3.87;3.00;;;;;;;17.12;100.00;95394.47;5013233;28;20285;-70
2023/06/04 03:56:28;;;;;;;4.30;3.10;;;;;;;17.00;100.00;95393.66;4994124;28;20234;-71
2023/06/04 03:58:53;;;;;;;4.50;3.27;;;;;;;16.92;100.00;95399.25;4995236;28;20246;-71
2023/06/04 04:01:19;;;;;;;4.57;3.10;;;;;;;16.81;100.00;95392.13;4994699;28;20263;-71
2023/06/04 04:03:48;;;;;;;4.83;3.30;;;;;;;17.01;100.00;95397.06;4993609;28;20238;-71
2023/06/04 04:06:13;;;;;;;6.37;3.50;;;;;;;17.09;100.00;95402.84;4999686;28;20305;-71
2023/06/04 04:08:42;;;;;;;4.97;3.30;;;;;;;17.01;100.00;95397.06;4994755;28;20715;-72
2023/06/04 04:11:08;;;;;;;5.57;3.50;;;;;;;17.03;100.00;95398.47;4991300;28;20227;-71
2023/06/04 04:13:33;;;;;;;4.77;3.40;;;;;;;17.02;100.00;95396.06;4996236;28;20235;-72
2023/06/04 04:15:59;;;;;;;7.00;3.60;;;;;;;17.08;100.00;95408.34;4994502;28;20251;-71
2023/06/04 04:18:25;;;;;;;5.20;3.70;;;;;;;17.25;100.00;95410.13;4995696;28;20232;-72
2023/06/04 04:20:50;;;;;;;5.57;3.60;;;;;;;17.24;100.00;95405.84;4988771;28;20820;-71
2023/06/04 04:23:16;;;;;;;4.83;3.70;;;;;;;17.32;100.00;95408.16;4994922;28;20235;-71
2023/06/04 04:25:44;;;;;;;7.03;3.80;;;;;;;17.29;100.00;95413.91;4980598;28;20636;-71
2023/06/04 04:28:09;;;;;;;7.23;3.63;;;;;;;17.28;100.00;95407.03;4987964;28;20301;-70
2023/06/04 04:30:35;;;;;;;5.23;3.90;;;;;;;17.32;100.00;95408.16;4994877;28;20709;-71
2023/06/04 04:33:04;;;;;;;8.17;4.20;;;;;;;17.42;100.00;95407.59;4977554;28;20230;-71
2023/06/04 04:35:34;;;;;;;5.40;3.90;;;;;;;17.43;100.00;95406.59;4989041;28;20238;-72
2023/06/04 04:38:03;;;;;;;5.17;3.90;;;;;;;17.25;100.00;95415.41;4962480;28;21065;-72
2023/06/04 04:40:28;;;;;;;5.60;3.80;;;;;;;17.37;100.00;95412.78;4994513;28;20280;-72
2023/06/04 04:42:54;;;;;;;8.30;3.90;;;;;;;17.57;100.00;95412.47;4990542;28;20313;-72
2023/06/04 04:45:20;;;;;;;7.90;4.33;;;;;;;17.52;100.00;95415.00;4995083;28;20313;-71
2023/06/04 04:47:46;;;;;;;6.07;3.97;;;;;;;17.55;100.00;95406.59;4994918;28;20233;-71
2023/06/04 04:50:12;;;;;;;7.07;3.90;;;;;;;17.54;100.00;95408.44;5001912;28;20234;-71
2023/06/04 04:52:37;;;;;;;5.40;4.00;;;;;;;17.59;100.00;95408.56;4995251;28;20224;-70
2023/06/04 04:55:03;;;;;;;6.73;4.00;;;;;;;17.68;100.00;95407.16;4994812;28;20242;-72
2023/06/04 04:57:29;;;;;;;6.17;4.13;;;;;;;17.71;100.00;95413.84;4993867;28;20316;-72
2023/06/04 04:59:54;;;;;;;5.80;4.20;;;;;;;17.68;100.00;95417.75;4995363;28;20778;-71
2023/06/04 05:02:20;;;;;;;8.53;3.90;;;;;;;17.60;100.00;95414.66;5002239;28;20238;-71
2023/06/04 05:04:46;;;;;;;6.67;4.40;;;;;;;17.69;100.00;95415.94;4991086;28;20242;-73
2023/06/04 05:07:13;;;;;;;7.80;4.70;;;;;;;17.66;100.00;95419.84;4994352;28;20257;-71
2023/06/04 05:09:40;;;;;;;8.53;4.70;;;;;;;17.76;100.00;95422.72;4993460;28;20235;-73
2023/06/04 05:12:08;;;;;;;8.90;4.87;;;;;;;17.83;100.00;95425.25;4998143;28;20234;-72
2023/06/04 05:14:36;;;;;;;6.73;5.03;;;;;;;17.71;100.00;95422.59;4993384;28;20255;-72
2023/06/04 05:17:06;;;;;;;7.83;4.80;;;;;;;17.66;100.00;95419.84;4993098;28;20350;-72
2023/06/04 05:19:32;;;;;;;7.77;4.70;;;;;;;17.64;100.00;95421.91;4991770;28;20239;-72
2023/06/04 05:22:00;;;;;;;6.63;4.93;;;;;;;17.72;100.00;95429.50;5009001;28;20231;-72
2023/06/04 05:24:26;;;;;;;9.43;4.97;;;;;;;17.85;100.00;95431.91;4995384;28;20231;-70
2023/06/04 05:26:51;;;;;;;8.03;4.73;;;;;;;17.90;99.72;95426.72;4984739;28;20681;-72
2023/06/04 05:29:17;;;;;;;9.27;5.10;;;;;;;17.90;99.12;95426.72;4994304;28;20608;-71
2023/06/04 05:31:48;;;;;;;8.70;5.00;;;;;;;17.89;99.77;95426.94;4992617;28;20255;-70
2023/06/04 05:34:18;;;;;;;8.63;4.90;;;;;;;17.93;97.39;95426.28;4992986;28;20227;-71
2023/06/04 05:36:43;;;;;;;7.93;4.80;;;;;;;17.91;96.87;95433.63;4992825;28;20231;-70
2023/06/04 05:39:12;;;;;;;7.93;5.00;;;;;;;17.88;96.70;95438.59;4992527;28;20242;-71
2023/06/04 05:41:38;;;;;;;8.13;5.13;;;;;;;17.84;96.44;95438.25;4990541;28;20231;-70
2023/06/04 05:44:04;;;;;;;10.23;5.13;;;;;;;17.95;96.08;95433.97;4992045;28;20979;-72
2023/06/04 05:46:29;;;;;;;10.33;5.53;;;;;;;17.99;95.68;95435.94;4993783;28;20223;-71
2023/06/04 05:48:55;;;;;;;7.80;5.03;;;;;;;17.95;96.02;95433.97;4993090;28;20622;-72
2023/06/04 05:51:21;;;;;;;8.03;4.90;;;;;;;17.96;96.06;95441.69;5007998;28;20230;-72
2023/06/04 05:53:47;;;;;;;9.70;5.00;;;;;;;17.93;96.09;95449.31;4987564;28;20391;-73
2023/06/04 05:56:13;;;;;;;12.53;4.97;;;;;;;18.08;94.19;95444.31;4994409;28;20262;-72
2023/06/04 05:58:38;;;;;;;7.63;4.87;;;;;;;18.10;95.06;95448.34;4993816;28;20238;-72
2023/06/04 06:01:04;;;;;;;10.37;5.43;;;;;;;18.05;94.81;95450.09;4994964;28;20223;-71
2023/06/04 06:03:29;;;;;;;10.00;5.17;;;;;;;18.07;94.66;95459.44;5007519;28;20224;-71
2023/06/04 06:05:57;;;;;;;9.70;5.23;;;;;;;18.14;94.00;95462.75;4991160;28;20224;-72
2023/06/04 06:08:22;;;;;;;8.13;5.40;;;;;;;18.08;93.65;95462.84;5006940;28;20247;-71
2023/06/04 06:10:48;;;;;;;7.70;5.30;;;;;;;18.03;93.94;95466.19;4988053;28;20235;-73
2023/06/04 06:13:13;;;;;;;10.57;5.33;;;;;;;18.10;93.29;95461.59;4990233;28;20629;-71
2023/06/04 06:15:39;;;;;;;10.60;5.43;;;;;;;18.23;92.87;95470.31;4989961;28;20231;-72
2023/06/04 06:18:05;;;;;;;9.43;5.10;;;;;;;18.23;93.19;95465.84;4992702;28;20689;-72
2023/06/04 06:20:32;;;;;;;10.40;5.43;;;;;;;18.19;92.32;95470.00;4992295;28;20331;-71
2023/06/04 06:23:00;;;;;;;8.93;4.97;;;;;;;18.22;91.86;95468.72;5007519;28;20219;-72
2023/06/04 06:25:26;;;;;;;8.93;5.13;;;;;;;18.26;91.73;95468.03;4995242;28;20234;-72
2023/06/04 06:27:52;;;;;;;11.73;5.50;;;;;;;18.28;91.62;95465.94;4992122;28;20230;-72
2023/06/04 06:30:18;;;;;;;8.60;5.07;;;;;;;18.35;91.54;95463.97;5000906;28;20230;-71
2023/06/04 06:32:43;;;;;;;9.77;5.17;;;;;;;18.37;91.43;95463.72;4991298;28;20238;-72
2023/06/04 06:35:09;;;;;;;9.00;5.30;;;;;;;18.38;91.81;95466.16;4993611;28;20309;-72
2023/06/04 06:37:35;;;;;;;9.60;5.40;;;;;;;18.43;91.62;95470.75;5007264;28;20282;-72
2023/06/04 06:40:00;;;;;;;10.43;4.97;;;;;;;18.43;91.74;95460.97;4994033;28;20231;-71
2023/06/04 06:42:26;;;;;;;7.63;5.20;;;;;;;18.44;90.79;95469.69;4991828;28;20230;-72
2023/06/04 06:44:51;;;;;;;7.13;5.10;;;;;;;18.53;90.41;95473.66;4993829;28;20636;-72
2023/06/04 06:47:17;;;;;;;7.70;5.07;;;;;;;18.58;89.78;95471.88;4998116;28;20242;-72
2023/06/04 06:49:45;;;;;;;13.10;5.23;;;;;;;18.62;89.82;95472.22;4997806;28;20235;-73
2023/06/04 06:52:10;;;;;;;10.67;5.30;;;;;;;18.53;88.65;95473.66;5012901;28;20317;-71
2023/06/04 06:54:36;;;;;;;9.50;5.23;;;;;;;18.49;89.50;95468.00;4994891;28;20238;-72
2023/06/04 06:57:02;;;;;;;8.73;5.20;;;;;;;18.59;89.84;95478.00;4992914;28;20239;-72
2023/06/04 06:59:28;;;;;;;9.80;5.33;;;;;;;18.60;89.83;95490.22;4998599;28;20239;-73
2023/06/04 07:01:53;;;;;;;10.33;5.13;;;;;;;18.65;89.82;95488.47;5005140;28;20238;-70
2023/06/04 07:04:19;;;;;;;9.10;5.40;;;;;;;18.44;89.17;95490.91;4996161;28;20918;-71
2023/06/04 07:06:45;;;;;;;9.63;5.20;;;;;;;18.61;90.17;95483.88;4975815;28;20645;-72
2023/06/04 07:09:11;;;;;;;10.57;5.10;;;;;;;18.65;90.06;95488.47;4995041;28;20250;-71
2023/06/04 07:11:36;;;;;;;12.83;5.23;;;;;;;18.71;90.61;95486.72;4992991;28;20713;-72
2023/06/04 07:14:02;;;;;;;8.67;5.10;;;;;;;18.79;91.18;95497.75;5010651;28;20235;-72
2023/06/04 07:16:28;;;;;;;6.90;4.57;;;;;;;18.78;89.89;95503.31;5005690;28;20239;-72
2023/06/04 07:18:54;;;;;;;7.30;4.77;;;;;;;18.81;90.33;95495.69;4972015;28;20274;-72
2023/06/04 07:21:20;;;;;;;8.50;5.57;;;;;;;18.80;90.78;95501.22;4989299;28;20618;-71
2023/06/04 07:23:49;;;;;;;8.50;5.40;;;;;;;18.80;91.38;95502.03;4992522;28;20234;-72
2023/06/04 07:26:15;;;;;;;11.90;5.20;;;;;;;18.84;90.04;95513.00;4991060;28;20236;-72
2023/06/04 07:28:40;;;;;;;7.20;5.20;;;;;;;18.87;91.08;95507.19;5006347;28;20239;-72
2023/06/04 07:31:06;;;;;;;8.90;5.43;;;;;;;18.96;90.51;95502.34;5009687;28;20293;-72
2023/06/04 07:33:31;;;;;;;8.77;5.40;;;;;;;19.06;90.89;95510.50;4995660;28;20941;-71
2023/06/04 07:35:57;;;;;;;9.80;6.00;;;;;;;19.06;90.51;95513.16;4992563;28;20222;-73
2023/06/04 07:38:22;;;;;;;9.17;5.33;;;;;;;19.11;90.10;95513.22;4975821;28;20238;-70
2023/06/04 07:40:48;;;;;;;8.83;5.70;;;;;;;19.10;90.78;95509.78;4977590;28;20231;-71
2023/06/04 07:43:13;;;;;;;13.23;6.00;;;;;;;19.07;90.54;95515.53;4991534;28;20224;-71
2023/06/04 07:45:39;;;;;;;9.43;5.90;;;;;;;19.13;90.83;95517.25;4982233;28;20228;-73
2023/06/04 07:48:05;;;;;;;9.17;5.80;;;;;;;19.26;90.50;95511.66;4987088;28;20326;-72
2023/06/04 07:50:30;;;;;;;8.67;5.53;;;;;;;19.37;90.35;95512.66;4989923;28;20231;-72
2023/06/04 07:52:56;;;;;;;12.67;5.80;;;;;;;19.36;90.65;95519.84;4985647;28;20223;-72
2023/06/04 07:55:22;;;;;;;8.10;5.70;;;;;;;19.43;91.38;95519.66;4990863;28;20678;-72
2023/06/04 07:57:47;;;;;;;10.37;5.90;;;;;;;19.51;90.48;95521.94;5006707;28;20245;-73
2023/06/04 08:00:14;;;;;;;12.53;5.97;;;;;;;19.51;88.24;95531.75;4993480;28;20219;-72
2023/06/04 08:02:39;;;;;;;13.10;6.17;;;;;;;19.41;89.04;95527.88;4993567;28;20228;-72
2023/06/04 08:05:05;;;;;;;10.70;5.80;;;;;;;19.52;89.54;95520.88;4978274;28;20223;-72
2023/06/04 08:07:31;;;;;;;9.93;6.30;;;;;;;19.50;88.91;95512.34;4993618;28;20701;-72
2023/06/04 08:09:56;;;;;;;11.57;6.27;;;;;;;19.55;87.71;95530.22;5006393;28;20339;-72
2023/06/04 08:12:22;;;;;;;11.67;6.43;;;;;;;19.62;88.65;95526.38;5006294;28;20666;-72
2023/06/04 08:14:48;;;;;;;10.17;6.00;;;;;;;19.70;88.37;95525.97;4992735;28;20251;-72
2023/06/04 08:17:22;;;;;;;10.30;5.97;;;;;;;19.62;88.06;95526.38;4990324;28;20243;-72
2023/06/04 08:19:48;;;;;;;10.87;6.07;;;;;;;19.71;87.45;95516.94;4995814;28;20253;-72
2023/06/04 08:22:13;;;;;;;10.40;6.20;;;;;;;19.90;88.07;95518.31;4997582;28;20227;-72
2023/06/04 08:24:39;;;;;;;15.87;6.50;;;;;;;19.91;87.75;95529.75;4989021;28;21008;-72
2023/06/04 08:27:04;;;;;;;9.13;6.03;;;;;;;20.00;87.32;95529.09;4999571;28;20232;-72
2023/06/04 08:29:30;;;;;;;12.00;6.30;;;;;;;20.15;87.09;95523.22;4995832;28;20310;-72
2023/06/04 08:31:55;;;;;;;9.63;6.30;;;;;;;20.14;86.69;95522.41;4989160;28;20241;-71
2023/06/04 08:34:21;;;;;;;12.43;6.47;;;;;;;20.17;87.19;95529.09;4992979;28;20242;-72
2023/06/04 08:36:46;;;;;;;15.03;6.90;;;;;;;20.20;86.47;95539.25;4993596;28;20720;-72
2023/06/04 08:39:12;;;;;;;12.40;7.07;;;;;;;20.18;85.76;95534.16;5008274;28;20238;-72
2023/06/04 08:41:44;;;;;;;12.73;6.57;;;;;;;20.23;86.48;95540.66;4993689;28;20246;-71
2023/06/04 08:44:10;;;;;;;10.03;6.50;;;;;;;20.21;86.43;95545.34;5012229;28;20341;-72
2023/06/04 08:46:39;;;;;;;12.60;7.00;;;;;;;20.08;86.47;95547.28;4990391;28;20235;-72
2023/06/04 08:49:06;;;;;;;13.07;6.80;;;;;;;20.03;85.48;95543.78;4999352;28;20223;-71
2023/06/04 08:51:33;;;;;;;16.37;7.33;;;;;;;19.96;85.06;95543.13;4982825;28;20678;-72
2023/06/04 08:53:59;;;;;;;14.90;7.67;;;;;;;20.00;85.55;95544.25;4982016;28;20238;-70
2023/06/04 08:56:25;;;;;;;18.43;7.20;;;;;;;20.04;85.96;95550.69;4970984;28;20239;-72
2023/06/04 08:58:51;;;;;;;11.73;7.30;;;;;;;19.99;85.17;95554.06;5006740;28;20243;-71
2023/06/04 09:01:17;;;;;;;11.33;7.30;;;;;;;20.12;85.84;95548.44;4995527;28;20231;-71
2023/06/04 09:03:42;;;;;;;12.80;7.53;;;;;;;20.13;85.38;95560.66;4975285;28;20259;-71
2023/06/04 09:06:08;;;;;;;14.37;7.63;;;;;;;20.22;85.38;95561.09;4995064;28;20236;-71
2023/06/04 09:08:35;;;;;;;15.07;7.00;;;;;;;20.30;84.86;95555.34;5008132;28;20336;-70
2023/06/04 09:11:04;;;;;;;12.73;7.10;;;;;;;20.26;85.73;95556.91;5000423;28;20606;-71
2023/06/04 09:13:31;;;;;;;10.27;6.97;;;;;;;20.46;84.56;95561.72;5009095;28;20236;-72
2023/06/04 09:16:01;;;;;;;11.30;7.27;;;;;;;20.52;83.73;95558.88;4999454;28;20233;-72
2023/06/04 09:18:26;;;;;;;13.07;7.43;;;;;;;20.51;80.81;95562.59;4985853;28;20261;-72
2023/06/04 09:21:01;;;;;;;13.87;7.73;;;;;;;20.48;81.44;95565.72;5007389;28;20258;-72
2023/06/04 09:23:27;;;;;;;12.60;8.03;;;;;;;20.56;80.33;95569.84;4993713;28;20273;-71
2023/06/04 09:25:53;;;;;;;19.20;8.00;;;;;;;20.61;79.93;95560.03;4992896;28;20235;-71
2023/06/04 09:28:19;;;;;;;14.10;7.93;;;;;;;20.58;81.71;95557.91;4977939;28;20239;-73
2023/06/04 09:30:52;;;;;;;16.50;7.83;;;;;;;20.62;79.97;95556.34;4978187;28;20231;-71
2023/06/04 09:33:17;;;;;;;13.80;7.97;;;;;;;20.72;80.24;95563.66;4979158;28;20262;-73
2023/06/04 09:35:53;;;;;;;16.80;8.17;;;;;;;20.63;79.91;95559.81;4980960;28;20282;-73
2023/06/04 09:38:19;;;;;;;14.13;8.60;;;;;;;20.63;80.33;95559.81;5002704;28;20249;-72
2023/06/04 09:40:45;;;;;;;14.70;8.43;;;;;;;20.77;80.50;95556.56;5007915;28;20245;-72
2023/06/04 09:43:10;;;;;;;14.67;7.63;;;;;;;20.82;79.91;95561.13;4992361;28;20629;-72
2023/06/04 09:45:36;;;;;;;15.60;7.57;;;;;;;20.80;80.16;95563.25;4993030;28;20836;-71
2023/06/04 09:48:02;;;;;;;17.77;7.70;;;;;;;20.86;80.96;95559.56;4976831;28;20604;-71
2023/06/04 09:50:34;;;;;;;13.60;8.00;;;;;;;20.83;79.90;95555.56;4991235;28;20274;-71
2023/06/04 09:53:00;;;;;;;14.27;7.90;;;;;;;20.87;79.17;95558.53;4978860;28;20796;-71
2023/06/04 09:55:25;;;;;;;16.27;7.90;;;;;;;20.91;79.25;95550.84;4977746;28;20231;-71
2023/06/04 09:57:51;;;;;;;16.67;8.77;;;;;;;21.03;78.64;95556.84;5012651;28;20235;-72
2023/06/04 10:00:18;;;;;;;14.07;8.60;;;;;;;21.16;78.17;95554.63;4985072;28;20235;-71
2023/06/04 10:02:45;;;;;;;14.67;8.43;;;;;;;21.14;78.69;95554.06;4968021;28;20325;-72
2023/06/04 10:05:14;;;;;;;14.33;8.20;;;;;;;21.09;79.12;95559.34;4984955;28;20752;-72
2023/06/04 10:07:39;;;;;;;13.73;8.20;;;;;;;21.24;77.47;95559.53;4992435;28;20231;-72
2023/06/04 10:10:05;;;;;;;13.10;8.10;;;;;;;21.22;77.61;95556.31;4982724;28;20810;-72
2023/06/04 10:12:31;;;;;;;14.38;7.78;;;;;;;21.32;77.18;95548.44;4969107;28;20231;-72
2023/06/04 10:14:59;;;;;;;11.38;7.63;;;;;;;21.55;77.17;95551.81;4986377;28;20238;-72
2023/06/04 10:17:24;;;;;;;14.00;7.78;;;;;;;21.68;76.21;95541.59;4981904;28;20916;-71
2023/06/04 10:19:54;;;;;;;13.18;7.70;;;;;;;21.78;75.36;95541.66;4995033;28;20247;-71
2023/06/04 10:22:20;;;;;;;13.17;7.60;;;;;;;21.95;77.05;95553.03;5006793;28;20236;-72
2023/06/04 10:24:46;;;;;;;13.13;7.72;;;;;;;21.85;75.93;95552.16;5001000;28;20266;-73
2023/06/04 10:27:12;;;;;;;15.25;7.53;;;;;;;22.00;74.74;95542.41;4996527;28;20301;-71
2023/06/04 10:29:38;;;;;;;14.65;7.82;;;;;;;21.99;73.68;95548.81;5010728;28;20734;-72
2023/06/04 10:32:04;;;;;;;14.00;7.32;;;;;;;22.10;73.94;95544.34;4981630;28;20250;-70
2023/06/04 10:34:30;;;;;;;9.50;6.88;;;;;;;22.18;75.30;95540.41;4991599;28;20231;-72
2023/06/04 10:36:55;;;;;;;11.50;7.40;;;;;;;22.24;74.97;95544.69;4977373;28;20241;-72
2023/06/04 10:39:35;;;;;;;11.55;7.47;;;;;;;22.11;71.84;95552.06;4981193;28;20247;-73
2023/06/04 10:42:05;;;;;;;14.48;7.50;;;;;;;22.34;74.10;95545.56;4975992;28;20302;-72
2023/06/04 10:44:30;;;;;;;13.45;8.02;;;;;;;22.36;71.77;95547.97;4989565;28;20278;-79
2023/06/04 10:46:57;;;;;;;11.40;7.30;;;;;;;22.04;74.23;95545.38;4987494;28;20242;-72
2023/06/04 10:49:27;;;;;;;12.88;6.85;;;;;;;21.98;73.56;95543.72;5006143;28;20240;-71
2023/06/04 10:51:52;;;;;;;14.82;7.53;;;;;;;21.88;74.91;95547.09;5009622;28;20235;-70
2023/06/04 10:54:27;;;;;;;13.77;7.70;;;;;;;21.84;73.05;95545.16;4975139;28;20736;-70
2023/06/04 10:56:53;;;;;;;14.48;7.72;;;;;;;21.84;73.19;95539.84;4976673;28;20626;-71
2023/06/04 10:59:19;;;;;;;11.65;7.35;;;;;;;21.82;72.33;95532.09;4993614;28;20239;-72
2023/06/04 11:01:45;;;;;;;11.27;7.80;;;;;;;21.83;73.82;95532.91;4996673;28;20994;-72
2023/06/04 11:04:24;;;;;;;16.10;7.78;;;;;;;21.89;73.49;95535.41;5008675;28;20223;-71
2023/06/04 11:07:10;;;;;;;12.25;7.93;;;;;;;21.84;74.41;95538.00;4992743;28;20630;-72
2023/06/04 11:09:48;;;;;;;11.25;7.70;;;;;;;21.83;72.17;95538.25;5009613;28;20253;-72
2023/06/04 11:12:16;;;;;;;13.65;7.93;;;;;;;21.73;72.89;95540.81;4973808;28;20278;-73
2023/06/04 11:14:56;;;;;;;13.52;8.30;;;;;;;21.82;73.29;95532.09;4981793;28;20288;-74
2023/06/04 11:17:24;;;;;;;9.73;7.68;;;;;;;21.82;72.66;95537.44;4999229;28;20239;-73
2023/06/04 11:19:55;;;;;;;15.95;8.45;;;;;;;21.71;73.78;95535.72;4988408;28;20297;-72
2023/06/04 11:22:20;;;;;;;12.70;8.10;;;;;;;21.74;72.72;95532.56;4991615;28;20238;-72
2023/06/04 11:24:46;;;;;;;11.02;7.97;;;;;;;21.65;73.44;95536.75;4991110;28;20228;-72
2023/06/04 11:27:12;;;;;;;11.50;8.13;;;;;;;21.70;74.25;95536.81;4982492;28;20234;-71